createdAt,value
2023-12-11T00:00:27.418Z,9.15
2023-12-11T00:02:57.766Z,10.15
2023-12-11T00:05:26.062Z,9.38
2023-12-11T00:07:54.905Z,8.70
2023-12-11T00:10:22.088Z,9.65
2023-12-11T00:12:52.159Z,9.23
2023-12-11T00:15:21.451Z,8.93
2023-12-11T00:17:50.431Z,9.57
2023-12-11T00:20:33.134Z,10.27
2023-12-11T00:23:02.194Z,10.13
2023-12-11T00:25:34.657Z,9.45
2023-12-11T00:28:02.669Z,10.85
2023-12-11T00:30:34.094Z,10.88
2023-12-11T00:33:03.653Z,11.23
2023-12-11T00:35:35.245Z,12.02
2023-12-11T00:38:05.650Z,11.27
2023-12-11T00:40:35.438Z,12.38
2023-12-11T00:43:04.759Z,12.57
2023-12-11T00:45:33.013Z,11.95
2023-12-11T00:48:02.730Z,11.65
2023-12-11T00:50:30.505Z,11.07
2023-12-11T00:52:59.378Z,11.80
2023-12-11T00:55:28.137Z,11.95
2023-12-11T00:58:01.936Z,12.82
2023-12-11T01:00:31.249Z,12.98
2023-12-11T01:03:01.081Z,12.77
2023-12-11T01:05:34.253Z,13.25
2023-12-11T01:08:02.583Z,13.57
2023-12-11T01:10:30.149Z,13.90
2023-12-11T01:12:57.817Z,12.52
2023-12-11T01:15:28.358Z,12.18
2023-12-11T01:17:56.761Z,14.18
2023-12-11T01:20:27.854Z,12.75
2023-12-11T01:22:56.197Z,13.43
2023-12-11T01:25:23.617Z,11.05
2023-12-11T01:27:52.169Z,13.82
2023-12-11T01:30:21.032Z,11.52
2023-12-11T01:32:51.582Z,10.20
2023-12-11T01:35:19.189Z,10.70
2023-12-11T01:37:49.178Z,11.07
2023-12-11T01:40:21.321Z,10.43
2023-12-11T01:42:49.672Z,11.63
2023-12-11T01:45:18.041Z,10.02
2023-12-11T01:47:49.385Z,10.63
2023-12-11T01:50:21.509Z,10.73
2023-12-11T01:52:48.448Z,10.60
2023-12-11T01:55:17.362Z,11.13
2023-12-11T01:57:45.783Z,12.10
2023-12-11T02:00:15.358Z,10.63
2023-12-11T02:02:44.922Z,11.52
2023-12-11T02:05:13.670Z,10.75
2023-12-11T02:07:43.699Z,11.45
2023-12-11T02:10:11.447Z,12.68
2023-12-11T02:12:39.629Z,12.93
2023-12-11T02:15:07.569Z,13.75
2023-12-11T02:17:34.609Z,12.82
2023-12-11T02:20:02.292Z,14.32
2023-12-11T02:22:31.006Z,13.13
2023-12-11T02:25:04.282Z,13.25
2023-12-11T02:27:33.999Z,11.55
2023-12-11T02:30:04.384Z,11.88
2023-12-11T02:32:31.901Z,11.25
2023-12-11T02:35:00.438Z,12.05
2023-12-11T02:37:37.243Z,11.80
2023-12-11T02:40:04.715Z,12.65
2023-12-11T02:42:34.246Z,13.02
2023-12-11T02:45:04.789Z,13.90
2023-12-11T02:47:37.349Z,13.40
2023-12-11T02:50:05.680Z,14.52
2023-12-11T02:52:33.584Z,14.20
2023-12-11T02:55:00.900Z,13.75
2023-12-11T02:57:30.111Z,13.80
2023-12-11T02:59:58.054Z,13.55
2023-12-11T03:02:26.863Z,14.85
2023-12-11T03:04:59.359Z,14.10
2023-12-11T03:07:28.599Z,14.43
2023-12-11T03:09:58.824Z,14.32
2023-12-11T03:12:28.863Z,15.85
2023-12-11T03:14:58.994Z,12.13
2023-12-11T03:17:30.620Z,10.43
2023-12-11T03:19:58.412Z,10.43
2023-12-11T03:22:26.520Z,10.55
2023-12-11T03:24:59.218Z,13.45
2023-12-11T03:27:30.979Z,12.25
2023-12-11T03:29:58.441Z,13.15
2023-12-11T03:32:26.560Z,12.00
2023-12-11T03:35:07.098Z,12.10
2023-12-11T03:37:35.448Z,12.27
2023-12-11T03:40:15.085Z,12.88
2023-12-11T03:42:44.871Z,11.98
2023-12-11T03:45:16.233Z,14.13
2023-12-11T03:47:45.915Z,14.00
2023-12-11T03:50:14.166Z,14.70
2023-12-11T03:52:41.152Z,13.02
2023-12-11T03:55:13.102Z,12.75
2023-12-11T03:57:41.089Z,14.57
2023-12-11T04:00:14.250Z,13.63
2023-12-11T04:05:10.724Z,17.88
2023-12-11T04:07:38.122Z,17.33
2023-12-11T04:10:10.440Z,18.33
2023-12-11T04:12:40.056Z,21.80
2023-12-11T04:15:11.751Z,20.08
2023-12-11T04:17:43.890Z,21.00
2023-12-11T04:20:12.004Z,21.00
2023-12-11T04:22:43.052Z,19.85
2023-12-11T04:25:10.363Z,20.83
2023-12-11T04:27:40.695Z,21.42
2023-12-11T04:30:08.617Z,22.95
2023-12-11T04:32:40.723Z,22.63
2023-12-11T04:35:08.972Z,23.52
2023-12-11T04:37:40.261Z,22.13
2023-12-11T04:40:16.012Z,21.58
2023-12-11T04:42:47.034Z,20.02
2023-12-11T04:45:16.214Z,20.48
2023-12-11T04:47:45.333Z,20.52
2023-12-11T04:50:15.683Z,21.55
2023-12-11T04:52:42.607Z,22.15
2023-12-11T04:55:11.709Z,19.55
2023-12-11T04:57:40.917Z,22.75
2023-12-11T05:00:11.968Z,20.90
2023-12-11T05:02:42.941Z,21.80
2023-12-11T05:05:11.506Z,22.65
2023-12-11T05:07:41.638Z,21.08
2023-12-11T05:10:24.475Z,21.98
2023-12-11T05:16:08.481Z,22.33
2023-12-11T05:18:40.521Z,21.65
2023-12-11T05:21:12.083Z,22.77
2023-12-11T05:23:50.374Z,21.48
2023-12-11T05:26:45.749Z,21.63
2023-12-11T05:29:15.392Z,21.38
2023-12-11T05:31:42.467Z,21.60
2023-12-11T05:34:12.163Z,21.42
2023-12-11T05:36:40.973Z,23.30
2023-12-11T05:39:11.468Z,23.05
2023-12-11T05:41:42.861Z,21.65
2023-12-11T05:44:11.185Z,23.98
2023-12-11T05:46:38.969Z,22.20
2023-12-11T05:49:07.357Z,19.83
2023-12-11T05:51:36.340Z,18.02
2023-12-11T05:54:03.479Z,19.88
2023-12-11T05:56:31.981Z,19.58
2023-12-11T05:58:59.213Z,20.58
2023-12-11T06:01:27.342Z,21.45
2023-12-11T06:03:58.051Z,20.63
2023-12-11T06:06:28.630Z,22.45
2023-12-11T06:08:56.961Z,17.00
2023-12-11T06:11:23.866Z,21.38
2023-12-11T06:13:51.700Z,20.40
2023-12-11T06:16:19.008Z,21.20
2023-12-11T06:18:48.342Z,21.45
2023-12-11T06:21:22.646Z,21.77
2023-12-11T06:23:50.635Z,21.27
2023-12-11T06:26:36.357Z,20.52
2023-12-11T06:29:03.923Z,19.92
2023-12-11T06:31:34.705Z,19.83
2023-12-11T06:34:06.869Z,17.83
2023-12-11T06:36:34.177Z,20.48
2023-12-11T06:39:03.779Z,20.15
2023-12-11T06:41:30.660Z,18.60
2023-12-11T06:43:59.222Z,19.73
2023-12-11T06:46:31.037Z,19.60
2023-12-11T06:48:59.188Z,19.70
2023-12-11T06:51:26.385Z,21.15
2023-12-11T06:54:02.054Z,23.02
2023-12-11T06:56:33.823Z,19.98
2023-12-11T06:59:04.513Z,20.80
2023-12-11T07:01:35.391Z,23.50
2023-12-11T07:04:03.746Z,19.70
2023-12-11T07:06:32.661Z,21.08
2023-12-11T07:09:01.476Z,20.20
2023-12-11T07:11:29.485Z,21.55
2023-12-11T07:13:56.769Z,20.45
2023-12-11T07:16:27.353Z,22.27
2023-12-11T07:18:56.194Z,21.05
2023-12-11T07:21:23.281Z,23.02
2023-12-11T07:23:51.751Z,26.00
2023-12-11T07:26:19.100Z,22.33
2023-12-11T07:28:51.012Z,22.05
2023-12-11T07:31:19.779Z,22.05
2023-12-11T07:33:48.221Z,22.60
2023-12-11T07:36:17.198Z,22.40
2023-12-11T07:38:45.690Z,21.50
2023-12-11T07:41:13.880Z,21.73
2023-12-11T07:43:46.147Z,23.38
2023-12-11T07:46:21.381Z,25.75
2023-12-11T07:48:51.818Z,23.98
2023-12-11T07:51:26.945Z,23.20
2023-12-11T07:54:03.014Z,26.85
2023-12-11T07:56:31.247Z,26.70
2023-12-11T07:58:58.209Z,25.33
2023-12-11T08:01:26.550Z,26.02
2023-12-11T08:03:55.223Z,24.83
2023-12-11T08:06:22.809Z,25.42
2023-12-11T08:08:50.452Z,24.73
2023-12-11T08:11:23.488Z,25.45
2023-12-11T08:16:20.260Z,25.65
2023-12-11T08:18:49.650Z,26.73
2023-12-11T08:21:20.313Z,26.52
2023-12-11T08:23:52.469Z,26.35
2023-12-11T08:26:20.865Z,25.90
2023-12-11T08:28:50.585Z,26.70
2023-12-11T08:31:18.085Z,25.88
2023-12-11T08:33:46.989Z,25.70
2023-12-11T08:36:15.988Z,26.95
2023-12-11T08:38:42.958Z,27.00
2023-12-11T08:41:09.982Z,27.10
2023-12-11T08:43:52.526Z,27.50
2023-12-11T08:46:21.634Z,28.08
2023-12-11T08:48:52.952Z,28.95
2023-12-11T08:51:22.040Z,28.42
2023-12-11T08:53:49.498Z,28.05
2023-12-11T08:56:18.614Z,25.50
2023-12-11T08:58:50.382Z,23.38
2023-12-11T09:01:19.851Z,23.30
2023-12-11T09:03:48.571Z,21.45
2023-12-11T09:06:16.778Z,22.55
2023-12-11T09:08:44.092Z,21.23
2023-12-11T09:11:11.619Z,22.80
2023-12-11T09:13:40.613Z,22.25
2023-12-11T09:16:11.337Z,20.80
2023-12-11T09:18:38.727Z,21.65
2023-12-11T09:26:32.344Z,21.35
2023-12-11T09:29:08.992Z,20.60
2023-12-11T09:31:47.871Z,23.17
2023-12-11T09:34:15.781Z,20.48
2023-12-11T09:36:54.548Z,21.48
2023-12-11T09:39:28.636Z,20.45
2023-12-11T09:41:57.576Z,22.08
2023-12-11T09:44:24.468Z,24.15
2023-12-11T09:47:09.007Z,21.77
2023-12-11T09:52:23.664Z,24.13
2023-12-11T09:54:53.061Z,24.83
2023-12-11T09:57:23.747Z,24.80
2023-12-11T10:00:07.843Z,23.83
2023-12-11T10:02:39.244Z,23.60
2023-12-11T10:05:11.155Z,24.75
2023-12-11T10:10:44.791Z,22.10
2023-12-11T10:13:12.832Z,23.77
2023-12-11T10:15:42.590Z,23.52
2023-12-11T10:18:18.301Z,24.25
2023-12-11T10:20:55.629Z,21.67
2023-12-11T10:23:31.047Z,22.27
2023-12-11T10:26:08.944Z,22.55
2023-12-11T10:28:36.237Z,21.85
2023-12-11T10:31:03.948Z,21.98
2023-12-11T10:33:32.466Z,22.33
2023-12-11T10:36:11.447Z,21.45
2023-12-11T10:38:38.826Z,22.95
2023-12-11T10:41:08.817Z,23.30
2023-12-11T10:43:55.984Z,22.45
2023-12-11T10:49:17.792Z,21.67
2023-12-11T10:52:04.339Z,21.65
2023-12-11T11:00:06.417Z,21.33
2023-12-11T12:04:12.290Z,20.95
2023-12-11T12:06:40.251Z,21.77
2023-12-11T12:09:07.514Z,22.13
2023-12-11T12:11:40.814Z,20.90
2023-12-11T12:14:15.803Z,20.92
2023-12-11T12:16:50.601Z,20.20
2023-12-11T12:19:22.107Z,19.23
2023-12-11T12:21:55.501Z,19.92
2023-12-11T12:27:11.481Z,21.98
2023-12-11T12:29:44.548Z,21.08
2023-12-11T12:34:46.248Z,21.08
2023-12-11T12:37:13.580Z,20.88
2023-12-11T12:57:27.357Z,20.95
2023-12-11T13:02:42.966Z,19.52
2023-12-11T13:05:12.801Z,21.55
2023-12-11T13:07:41.904Z,20.45
2023-12-11T13:10:32.305Z,20.25
2023-12-11T13:13:13.491Z,20.75
2023-12-11T13:15:41.269Z,17.92
2023-12-11T13:18:15.739Z,18.20
2023-12-11T13:20:48.109Z,17.52
2023-12-11T13:23:16.290Z,18.95
2023-12-11T13:25:44.052Z,18.02
2023-12-11T13:28:13.416Z,17.02
2023-12-11T13:30:41.225Z,18.65
2023-12-11T13:33:08.704Z,20.35
2023-12-11T13:35:43.523Z,17.95
2023-12-11T13:38:17.541Z,18.30
2023-12-11T13:40:44.476Z,18.55
2023-12-11T15:52:25.122Z,20.77
2023-12-11T19:34:17.733Z,22.75
2023-12-11T19:45:11.393Z,29.50
2023-12-11T21:07:52.335Z,1.63
2023-12-11T23:01:12.797Z,1.80
2023-12-11T23:03:40.281Z,1.58
2023-12-11T23:06:15.594Z,1.75
2023-12-11T23:08:43.935Z,2.20
2023-12-11T23:11:11.179Z,1.75
2023-12-11T23:13:40.173Z,1.40
2023-12-11T23:16:09.395Z,1.60
2023-12-11T23:18:41.416Z,1.60
2023-12-11T23:21:20.181Z,1.50
2023-12-11T23:23:52.326Z,1.80
2023-12-11T23:26:21.839Z,1.87
2023-12-11T23:28:52.089Z,1.90
2023-12-11T23:31:19.132Z,1.38
2023-12-11T23:33:50.494Z,2.88
2023-12-11T23:36:22.881Z,1.80
2023-12-11T23:38:50.424Z,1.80
2023-12-11T23:41:23.591Z,1.80
2023-12-11T23:43:55.857Z,1.90
2023-12-11T23:46:25.019Z,1.90
2023-12-11T23:48:54.115Z,1.90
2023-12-11T23:51:25.928Z,1.80
2023-12-11T23:53:56.207Z,1.80
2023-12-11T23:56:25.329Z,1.98
2023-12-11T23:58:53.313Z,2.45
